KSAA/SAA METAR and TAF weather

Enter ICAO airport designator
Station Type Date Time Source
KSAA METAR 2020/04/06 16:55 UTC NOAA

KSAA 061655Z AUTO 21018G27KT 10SM CLR 12/M11 A2990 RMK AO2


Station Type Date Time Source
KSAA Decoded METAR 2020/04/06 16:55 UTC NOAA

Station name not available
Apr 06, 2020 - 12:55 PM EDT / 2020.04.06 1655 UTC
Wind: from the SSW (210 degrees) at 21 MPH (18 KT) gusting to 31 MPH (27 KT):0
Visibility: 10 mile(s):0
Sky conditions: clear
Temperature: 53 F (12 C)
Dew Point: 12 F (-11 C)
Relative Humidity: 18%
Pressure (altimeter): 29.9 in. Hg (1012 hPa)
ob: KSAA 061655Z AUTO 21018G27KT 10SM CLR 12/M11 A2990 RMK AO2
cycle: 17

Station Type Date Time Source
KSAA TAF UTC NOAA

Error!

Example: see airport list